Time;durP1;ratioP1;P1;durP2;ratioP2;P2;SDS_P1;SDS_P2;PMS_P1;PMS_P2;Temp;Humidity;BMP_temperature;BMP_pressure;BME280_temperature;BME280_humidity;BME280_pressure;Samples;Min_cycle;Max_cycle;Signal;HPM_P1;HPM_P2
2022/10/07 00:00:07;;;;;;;19.50;2.90;;;;;;;7.04;64.52;101216.00;10386513;28;20721;-64
2022/10/07 00:05:09;;;;;;;13.02;2.90;;;;;;;7.03;64.50;101203.88;10385953;28;20395;-64
2022/10/07 00:10:11;;;;;;;13.00;2.38;;;;;;;7.00;64.54;101206.53;10385975;28;20049;-65
2022/10/07 00:15:12;;;;;;;13.95;2.33;;;;;;;6.98;64.55;101206.59;10384953;28;20444;-65
2022/10/07 00:20:14;;;;;;;9.10;2.50;;;;;;;6.98;64.27;101196.19;10386070;28;20493;-65
2022/10/07 00:25:16;;;;;;;9.40;3.10;;;;;;;6.77;63.83;101203.69;10386712;28;20053;-65
2022/10/07 00:30:18;;;;;;;9.05;2.42;;;;;;;6.52;64.78;101192.13;10387051;28;20811;-66
2022/10/07 00:35:19;;;;;;;10.48;2.80;;;;;;;6.61;64.67;101186.72;10384619;28;20068;-65
2022/10/07 00:40:21;;;;;;;28.13;2.95;;;;;;;6.62;64.68;101188.44;10386187;28;20054;-66
2022/10/07 00:45:23;;;;;;;22.38;2.88;;;;;;;6.63;64.57;101180.63;10379611;28;20493;-65
2022/10/07 00:50:28;;;;;;;37.55;3.05;;;;;;;6.62;64.91;101178.91;10375077;28;20052;-65
2022/10/07 00:55:31;;;;;;;17.88;2.60;;;;;;;6.59;64.59;101184.19;10377479;28;20049;-66
2022/10/07 01:00:32;;;;;;;17.73;2.80;;;;;;;6.53;64.44;101175.66;10383497;28;20057;-65
2022/10/07 01:05:34;;;;;;;10.18;2.95;;;;;;;6.41;64.61;101173.34;10382284;28;20049;-65
2022/10/07 01:10:57;;;;;;;36.15;2.88;;;;;;;6.48;64.75;101174.91;10384367;28;20057;-65
2022/10/07 01:16:23;;;;;;;42.15;2.70;;;;;;;6.46;64.94;101166.28;10382321;28;20410;-67
2022/10/07 01:21:59;;;;;;;127.45;4.78;;;;;;;6.44;65.04;101155.06;10374245;28;20045;-65
2022/10/07 01:27:12;;;;;;;139.82;4.60;;;;;;;6.55;64.89;101147.91;10383085;28;20041;-65
2022/10/07 01:32:20;;;;;;;133.30;5.22;;;;;;;6.62;65.05;101137.31;10384480;28;20064;-66
2022/10/07 01:37:25;;;;;;;56.85;3.50;;;;;;;6.78;64.88;101133.44;10384469;28;20064;-65
2022/10/07 01:42:28;;;;;;;39.28;3.25;;;;;;;6.91;64.53;101126.19;10385546;28;20099;-65
2022/10/07 01:47:29;;;;;;;26.33;3.45;;;;;;;6.93;64.46;101124.38;10384455;28;20056;-65
2022/10/07 01:52:43;;;;;;;42.65;3.38;;;;;;;7.03;64.33;101118.06;10382532;28;20064;-65
2022/10/07 01:58:03;;;;;;;53.85;4.60;;;;;;;6.93;64.83;101107.03;10384111;28;20060;-66
2022/10/07 02:03:20;;;;;;;83.18;4.65;;;;;;;6.94;65.51;101113.94;10386561;28;20053;-66
2022/10/07 02:08:53;;;;;;;114.55;5.18;;;;;;;6.93;65.19;101113.97;10390710;28;20057;-66
2022/10/07 02:14:07;;;;;;;115.90;5.93;;;;;;;6.95;65.26;101104.41;10386417;28;20053;-65
2022/10/07 02:19:22;;;;;;;121.70;5.15;;;;;;;6.89;65.57;101100.22;10390956;28;20417;-66
2022/10/07 02:24:28;;;;;;;240.07;9.02;;;;;;;6.87;65.35;101093.34;10391839;28;20057;-66
2022/10/07 02:29:33;;;;;;;54.33;3.70;;;;;;;6.79;65.85;101083.16;10392001;28;20409;-65
2022/10/07 02:34:37;;;;;;;138.13;5.50;;;;;;;6.87;65.65;101073.41;10392677;28;20080;-66
2022/10/07 02:39:39;;;;;;;471.02;13.00;;;;;;;6.79;65.49;101064.94;10397849;28;20061;-66
2022/10/07 02:44:45;;;;;;;144.70;4.88;;;;;;;6.73;65.97;101059.06;10398590;28;20053;-65
2022/10/07 02:49:52;;;;;;;219.43;7.60;;;;;;;6.88;65.68;101062.09;10396773;28;20600;-66
2022/10/07 02:55:05;;;;;;;495.70;11.88;;;;;;;6.87;65.89;101063.00;10397738;28;20131;-66
2022/10/07 03:00:08;;;;;;;245.68;6.93;;;;;;;6.80;65.88;101052.78;10397853;28;20053;-65
2022/10/07 03:05:18;;;;;;;168.68;5.88;;;;;;;6.81;66.04;101051.91;10391389;28;20049;-66
2022/10/07 03:10:20;;;;;;;189.30;6.00;;;;;;;6.88;66.08;101050.81;10391548;28;20052;-65
2022/10/07 03:15:22;;;;;;;232.93;6.32;;;;;;;6.86;65.84;101048.28;10390013;28;20059;-65
2022/10/07 03:20:24;;;;;;;154.57;5.40;;;;;;;6.81;65.94;101049.31;10390284;28;20060;-65
2022/10/07 03:25:26;;;;;;;155.05;5.80;;;;;;;6.87;66.39;101056.94;10391447;28;20045;-65
2022/10/07 03:30:28;;;;;;;204.85;6.60;;;;;;;6.83;66.29;101042.31;10389947;28;20504;-66
2022/10/07 03:35:30;;;;;;;164.63;6.90;;;;;;;6.97;66.01;101042.78;10390596;28;20607;-65
2022/10/07 03:40:33;;;;;;;164.35;5.72;;;;;;;6.96;66.04;101041.06;10390150;28;20115;-66
2022/10/07 03:45:41;;;;;;;210.82;7.72;;;;;;;7.13;65.73;101038.88;10389390;28;20489;-66
2022/10/07 03:50:49;;;;;;;183.80;7.22;;;;;;;7.02;65.73;101033.97;10386042;28;20060;-65
2022/10/07 03:55:51;;;;;;;308.77;8.68;;;;;;;6.75;65.95;101039.06;10388943;28;20057;-66
2022/10/07 04:01:06;;;;;;;361.58;11.65;;;;;;;6.71;66.24;101027.91;10388709;28;20060;-66
2022/10/07 04:06:08;;;;;;;208.35;6.95;;;;;;;6.81;66.09;101029.38;10388596;28;20061;-66
2022/10/07 04:11:10;;;;;;;477.20;15.05;;;;;;;6.68;65.97;101021.91;10389139;28;20041;-66
2022/10/07 04:16:12;;;;;;;439.02;13.23;;;;;;;6.72;66.16;101029.59;10387932;28;20053;-66
2022/10/07 04:21:13;;;;;;;178.38;7.50;;;;;;;6.72;66.32;101016.59;10388859;28;20107;-66
2022/10/07 04:26:15;;;;;;;175.50;7.18;;;;;;;6.91;66.12;101007.41;10389748;28;20057;-66
2022/10/07 04:31:17;;;;;;;361.80;10.32;;;;;;;6.93;65.97;101008.22;10388948;28;20163;-66
2022/10/07 04:36:19;;;;;;;309.73;9.55;;;;;;;6.84;66.11;101011.06;10376600;28;20064;-66
2022/10/07 04:41:20;;;;;;;458.15;12.70;;;;;;;6.86;66.14;101003.22;10388628;28;20045;-66
2022/10/07 04:46:22;;;;;;;129.70;6.00;;;;;;;6.82;65.88;101001.59;10385287;28;20049;-66
2022/10/07 04:51:23;;;;;;;266.92;8.93;;;;;;;6.75;66.00;101005.28;10382732;28;20099;-66
2022/10/07 04:56:27;;;;;;;234.73;8.82;;;;;;;6.74;66.33;101009.59;10384820;28;20057;-66
2022/10/07 05:01:28;;;;;;;142.45;6.75;;;;;;;6.77;66.04;101000.88;10386743;28;20061;-65
2022/10/07 05:06:31;;;;;;;274.98;8.45;;;;;;;6.74;66.01;100996.63;10378554;28;20472;-65
2022/10/07 05:11:33;;;;;;;120.75;6.07;;;;;;;6.60;66.00;100990.06;10386364;28;20045;-66
2022/10/07 05:16:34;;;;;;;243.60;9.55;;;;;;;6.62;66.05;100998.69;10386433;28;20050;-66
2022/10/07 05:21:36;;;;;;;672.83;18.88;;;;;;;6.50;65.64;100986.00;10382259;28;20417;-65
2022/10/07 05:26:38;;;;;;;266.23;9.38;;;;;;;6.30;66.77;100984.81;10380933;28;20440;-65
2022/10/07 05:31:40;;;;;;;211.32;7.47;;;;;;;6.50;66.52;100981.69;10384620;28;20056;-65
2022/10/07 05:36:42;;;;;;;525.95;14.00;;;;;;;6.58;66.00;100989.25;10384794;28;20067;-65
2022/10/07 05:41:44;;;;;;;175.02;7.18;;;;;;;6.53;65.97;100978.16;10385969;28;20463;-66
2022/10/07 05:46:46;;;;;;;299.83;10.68;;;;;;;6.47;66.37;100970.53;10385600;28;20136;-66
2022/10/07 05:51:48;;;;;;;493.60;14.52;;;;;;;6.54;66.16;100975.50;10384985;28;20489;-66
2022/10/07 05:56:49;;;;;;;132.00;7.13;;;;;;;6.62;66.21;100977.88;10382728;28;20053;-66
2022/10/07 06:01:56;;;;;;;314.25;10.40;;;;;;;6.46;66.31;100974.84;10383856;28;20057;-65
2022/10/07 06:06:58;;;;;;;236.80;8.40;;;;;;;6.48;66.69;100972.22;10383688;28;20124;-66
2022/10/07 06:17:20;;;;;;;359.25;11.13;;;;;;;6.74;66.10;100970.63;10382476;28;20053;-67
2022/10/07 06:22:21;;;;;;;306.02;9.98;;;;;;;6.78;65.95;100968.78;10382581;28;20514;-66
2022/10/07 06:27:23;;;;;;;351.08;11.27;;;;;;;6.69;65.89;100969.03;10383249;28;20387;-66
2022/10/07 06:32:25;;;;;;;259.35;8.07;;;;;;;6.68;66.13;100969.91;10384111;28;20049;-66
2022/10/07 06:37:30;;;;;;;368.98;12.88;;;;;;;6.59;66.32;100980.59;10381619;28;20048;-66
2022/10/07 06:42:32;;;;;;;129.85;6.93;;;;;;;6.68;66.60;100972.53;10382275;28;20056;-66
2022/10/07 06:47:33;;;;;;;97.93;6.10;;;;;;;6.82;66.48;100970.38;10366427;28;20045;-66
2022/10/07 06:52:35;;;;;;;238.55;9.60;;;;;;;6.99;65.93;100971.63;10384546;28;20053;-67
2022/10/07 06:57:44;;;;;;;351.63;10.15;;;;;;;7.06;65.49;100982.72;10382847;28;20177;-66
2022/10/07 07:02:47;;;;;;;127.40;6.07;;;;;;;7.19;65.61;100973.66;10376559;28;20140;-66
2022/10/07 07:07:48;;;;;;;456.27;12.40;;;;;;;7.25;65.08;100970.88;10380154;28;20449;-66
2022/10/07 07:12:54;;;;;;;389.38;14.00;;;;;;;7.29;65.22;100982.88;10377706;28;21679;-67
2022/10/07 07:17:56;;;;;;;656.28;18.80;;;;;;;7.21;64.91;100971.84;10379859;28;20061;-66
2022/10/07 07:22:57;;;;;;;281.40;9.80;;;;;;;7.04;65.73;100964.53;10388635;28;20045;-65
2022/10/07 07:28:00;;;;;;;647.83;20.80;;;;;;;7.03;65.59;100965.47;10389306;28;20056;-66
2022/10/07 07:33:04;;;;;;;302.48;13.20;;;;;;;7.15;65.65;100964.22;10390849;28;20063;-66
2022/10/07 07:38:06;;;;;;;252.15;8.80;;;;;;;7.45;65.09;100960.72;10387819;28;20072;-66
2022/10/07 07:43:07;;;;;;;239.18;9.32;;;;;;;7.61;65.15;100951.53;10389100;28;20064;-66
2022/10/07 07:48:09;;;;;;;141.60;6.97;;;;;;;7.75;64.64;100949.31;10391138;28;20068;-65
2022/10/07 07:53:10;;;;;;;163.82;7.68;;;;;;;7.64;64.75;100951.44;10388338;28;20049;-66
2022/10/07 07:58:16;;;;;;;400.40;12.65;;;;;;;7.59;64.87;100942.09;10391363;28;20054;-66
2022/10/07 08:03:20;;;;;;;146.20;9.70;;;;;;;7.67;65.12;100947.91;10390004;28;20494;-65
2022/10/07 08:08:22;;;;;;;479.23;15.00;;;;;;;7.81;63.96;100943.91;10390661;28;20084;-66
2022/10/07 08:13:23;;;;;;;315.95;10.82;;;;;;;7.60;64.49;100941.16;10388378;28;20053;-81
2022/10/07 08:18:25;;;;;;;604.60;20.40;;;;;;;7.63;64.18;100930.66;10394679;28;20056;-80
2022/10/07 08:23:29;;;;;;;498.15;17.65;;;;;;;7.41;64.40;100933.06;10395593;28;20784;-79
2022/10/07 08:28:32;;;;;;;257.90;11.85;;;;;;;7.47;64.43;100927.69;10394101;28;20096;-79
2022/10/07 08:33:38;;;;;;;518.20;18.80;;;;;;;7.58;64.28;100925.59;10390661;28;20053;-79
2022/10/07 08:38:40;;;;;;;252.13;14.40;;;;;;;7.91;63.98;100919.31;10388373;28;20061;-78
2022/10/07 08:43:46;;;;;;;120.93;10.48;;;;;;;8.10;63.54;100914.34;10394645;28;20391;-79
2022/10/07 08:49:14;;;;;;;45.85;7.68;;;;;;;8.55;63.28;100909.28;10387425;28;20068;-78
2022/10/07 08:54:21;;;;;;;29.75;6.20;;;;;;;9.17;62.10;100899.13;10380595;28;20045;-79
2022/10/07 08:59:34;;;;;;;369.52;17.65;;;;;;;9.24;60.46;100895.38;10386933;28;20065;-78
2022/10/07 09:04:57;;;;;;;122.25;10.98;;;;;;;9.08;61.11;100895.09;10386079;28;20053;-78
2022/10/07 09:10:00;;;;;;;35.45;7.40;;;;;;;9.16;61.56;100890.44;10387294;28;20064;-78
2022/10/07 09:15:04;;;;;;;15.80;6.72;;;;;;;9.51;61.42;100886.44;10381296;28;20049;-78
2022/10/07 09:20:15;;;;;;;11.98;6.90;;;;;;;9.91;60.55;100878.69;10386206;28;20061;-80
2022/10/07 09:25:23;;;;;;;;;;;;;;;9.99;60.05;100875.78;10386845;28;20048;-81
2022/10/07 09:30:27;;;;;;;9.10;5.47;;;;;;;10.54;59.72;100862.00;10386285;28;19929;-81
2022/10/07 09:35:32;;;;;;;12.98;6.35;;;;;;;10.83;58.69;100853.66;10363471;28;20532;-80
2022/10/07 09:46:41;;;;;;;14.65;6.72;;;;;;;10.29;59.44;100836.09;10384529;28;20051;-80
2022/10/07 09:52:22;;;;;;;9.20;6.93;;;;;;;10.43;59.38;100836.31;10396537;28;20448;-81
2022/10/07 09:57:29;;;;;;;10.02;6.35;;;;;;;10.47;59.73;100831.78;10388769;28;20276;-80
2022/10/07 10:02:31;;;;;;;10.95;6.25;;;;;;;10.88;58.97;100828.13;10400193;28;20144;-81
2022/10/07 10:07:35;;;;;;;14.57;6.55;;;;;;;10.68;59.23;100822.13;10398693;28;20494;-81
2022/10/07 10:12:46;;;;;;;13.00;5.97;;;;;;;10.62;58.95;100811.94;10390973;28;20156;-80
2022/10/07 10:17:49;;;;;;;14.02;6.13;;;;;;;10.77;59.48;100806.84;10395058;28;20121;-79
2022/10/07 10:22:52;;;;;;;18.00;6.00;;;;;;;10.94;59.24;100800.81;10391845;28;20045;-81
2022/10/07 10:28:13;;;;;;;9.75;5.50;;;;;;;11.15;59.57;100784.97;10390340;28;20060;-80
2022/10/07 10:33:22;;;;;;;8.55;5.15;;;;;;;11.27;59.99;100780.91;10388028;28;20081;-79
2022/10/07 10:38:36;;;;;;;13.80;5.90;;;;;;;11.31;59.83;100764.13;10382525;28;20061;-78
2022/10/07 10:44:13;;;;;;;10.68;4.97;;;;;;;11.54;59.83;100753.31;10413405;28;20061;-80
2022/10/07 10:49:37;;;;;;;11.00;5.45;;;;;;;11.67;59.85;100738.69;10369783;28;20064;-81
2022/10/07 10:54:42;;;;;;;8.90;4.40;;;;;;;11.94;59.39;100726.78;10382611;28;20060;-81
2022/10/07 11:00:11;;;;;;;13.27;4.60;;;;;;;12.16;58.35;100713.38;10390135;28;20057;-81
2022/10/07 11:05:21;;;;;;;10.23;4.18;;;;;;;12.56;58.60;100704.19;10391463;28;20575;-79
2022/10/07 11:10:55;;;;;;;10.88;4.38;;;;;;;12.73;58.10;100683.94;10392368;28;20068;-79
2022/10/07 11:16:03;;;;;;;10.77;4.18;;;;;;;13.07;57.59;100679.41;10390754;28;20152;-81
2022/10/07 11:21:11;;;;;;;13.18;3.80;;;;;;;13.20;56.85;100673.34;10391521;28;20390;-80
2022/10/07 11:26:22;;;;;;;11.63;3.63;;;;;;;13.42;56.35;100659.75;10390995;28;20250;-82
2022/10/07 11:31:36;;;;;;;7.45;3.08;;;;;;;13.69;55.62;100637.94;10391743;28;20053;-81
2022/10/07 11:37:04;;;;;;;9.65;3.03;;;;;;;13.92;54.91;100630.44;10389717;28;20514;-81
2022/10/07 11:42:14;;;;;;;9.68;2.85;;;;;;;14.22;53.45;100615.34;10391544;28;20493;-80
2022/10/07 11:47:23;;;;;;;7.40;2.50;;;;;;;14.38;53.45;100606.34;10389173;28;20103;-79
2022/10/07 11:52:30;;;;;;;8.93;2.53;;;;;;;14.65;52.40;100592.38;10389487;28;20042;-81
2022/10/07 11:57:42;;;;;;;8.93;2.78;;;;;;;14.98;52.51;100579.59;10389894;28;20057;-80
2022/10/07 12:02:45;;;;;;;10.20;2.53;;;;;;;15.18;51.56;100568.53;10389902;28;20065;-78
2022/10/07 12:08:17;;;;;;;9.32;2.70;;;;;;;15.37;50.87;100556.59;10388613;28;20472;-78
2022/10/07 12:13:22;;;;;;;12.70;3.63;;;;;;;15.60;50.98;100536.56;10389511;28;20442;-78
2022/10/07 12:18:26;;;;;;;12.85;3.38;;;;;;;15.73;50.74;100523.38;10389140;28;20713;-77
2022/10/07 12:23:39;;;;;;;8.25;2.15;;;;;;;15.89;50.19;100516.03;10390700;28;20152;-77
2022/10/07 12:28:47;;;;;;;8.73;2.20;;;;;;;16.04;49.65;100499.09;10389155;28;20049;-80
2022/10/07 12:33:57;;;;;;;7.82;2.08;;;;;;;16.07;47.91;100494.44;10387870;28;20056;-77
2022/10/07 12:38:59;;;;;;;9.05;1.92;;;;;;;16.33;49.00;100479.28;10388463;28;20057;-77
2022/10/07 12:44:19;;;;;;;12.60;2.60;;;;;;;16.54;48.93;100466.31;10388758;28;20053;-77
2022/10/07 12:49:41;;;;;;;12.82;2.30;;;;;;;16.47;49.53;100467.75;10388140;28;20049;-77
2022/10/07 12:54:55;;;;;;;8.52;2.50;;;;;;;16.77;48.20;100463.59;10387273;28;20423;-77
2022/10/07 13:00:12;;;;;;;9.23;2.38;;;;;;;16.98;47.97;100451.38;10370770;28;20589;-78
2022/10/07 13:05:54;;;;;;;8.50;2.35;;;;;;;17.09;46.66;100437.31;10386537;28;20448;-79
2022/10/07 13:11:24;;;;;;;7.45;2.08;;;;;;;17.07;44.88;100427.81;10384646;28;20052;-78
2022/10/07 13:17:01;;;;;;;8.60;2.10;;;;;;;17.07;47.34;100417.25;10386168;28;20525;-80
2022/10/07 13:22:12;;;;;;;9.48;2.08;;;;;;;17.06;47.73;100403.19;10369703;28;20116;-75
2022/10/07 13:27:23;;;;;;;13.90;2.50;;;;;;;17.00;48.43;100395.75;10382316;28;20100;-76
2022/10/07 13:32:29;;;;;;;8.50;2.38;;;;;;;17.20;48.49;100391.53;10376284;28;20045;-76
2022/10/07 13:37:35;;;;;;;7.10;2.40;;;;;;;17.16;48.17;100393.56;10384554;28;20049;-78
2022/10/07 13:42:37;;;;;;;11.20;2.58;;;;;;;17.22;48.33;100389.63;10385264;28;20441;-78
2022/10/07 13:47:42;;;;;;;10.80;2.33;;;;;;;17.17;47.94;100378.56;10386295;28;20056;-77
2022/10/07 13:52:45;;;;;;;7.47;2.15;;;;;;;17.19;47.73;100374.84;10380492;28;20080;-79
2022/10/07 13:57:48;;;;;;;10.02;2.10;;;;;;;17.18;47.71;100370.50;10385089;28;20046;-78
2022/10/07 14:02:50;;;;;;;6.93;1.95;;;;;;;17.12;47.88;100368.34;10386029;28;20982;-78
2022/10/07 14:07:57;;;;;;;8.32;2.08;;;;;;;17.03;47.69;100356.72;10386775;28;20229;-77
2022/10/07 14:13:02;;;;;;;9.40;2.10;;;;;;;17.06;48.78;100355.63;10385379;28;20049;-78
2022/10/07 14:18:04;;;;;;;8.45;2.45;;;;;;;17.26;48.51;100341.63;10381718;28;20072;-76
2022/10/07 14:23:15;;;;;;;7.50;2.10;;;;;;;17.64;47.46;100323.53;10383362;28;20053;-77
2022/10/07 14:28:19;;;;;;;7.35;2.10;;;;;;;17.85;46.99;100324.38;10383719;28;20054;-76
2022/10/07 14:39:21;;;;;;;7.32;2.13;;;;;;;18.05;46.31;100306.00;10392573;28;20057;-75
2022/10/07 14:44:24;;;;;;;8.93;2.10;;;;;;;17.81;47.45;100303.63;10392521;28;20049;-75
2022/10/07 14:49:26;;;;;;;10.40;2.50;;;;;;;17.55;47.71;100303.13;10389126;28;20815;-75
2022/10/07 14:54:29;;;;;;;9.85;2.20;;;;;;;17.27;48.06;100298.41;10389867;28;20061;-76
2022/10/07 14:59:31;;;;;;;7.60;2.15;;;;;;;17.03;48.89;100295.94;10388743;28;20060;-75
2022/10/07 15:04:33;;;;;;;11.60;2.63;;;;;;;16.63;49.73;100291.31;10389524;28;20060;-76
2022/10/07 15:09:35;;;;;;;9.85;2.40;;;;;;;16.46;50.23;100278.59;10390830;28;20085;-77
2022/10/07 15:14:36;;;;;;;10.23;2.40;;;;;;;16.30;50.45;100273.66;10389373;28;20061;-76
2022/10/07 15:19:38;;;;;;;11.23;2.67;;;;;;;16.20;50.55;100272.69;10390285;28;21032;-77
2022/10/07 15:24:40;;;;;;;8.40;2.50;;;;;;;16.19;51.43;100271.00;10391344;28;20057;-78
2022/10/07 15:29:41;;;;;;;7.63;2.40;;;;;;;16.10;51.26;100259.34;10390759;28;20057;-77
2022/10/07 15:34:44;;;;;;;9.50;2.70;;;;;;;16.31;51.56;100256.00;10390888;28;20049;-77
2022/10/07 15:39:46;;;;;;;11.27;3.03;;;;;;;16.45;50.68;100251.34;10389341;28;20559;-77
2022/10/07 15:44:48;;;;;;;9.18;2.55;;;;;;;16.63;50.22;100243.78;10389853;28;20653;-78
2022/10/07 15:49:50;;;;;;;11.55;2.58;;;;;;;16.79;49.89;100245.06;10389602;28;20072;-77
2022/10/07 15:54:52;;;;;;;16.55;3.50;;;;;;;16.75;49.97;100242.81;10377453;28;20049;-77
2022/10/07 15:59:53;;;;;;;12.35;2.75;;;;;;;16.75;50.58;100242.81;10388714;28;20100;-77
2022/10/07 16:04:55;;;;;;;9.65;2.53;;;;;;;16.62;51.21;100244.75;10386666;28;20045;-78
2022/10/07 16:09:56;;;;;;;9.20;2.50;;;;;;;16.41;52.50;100239.31;10388501;28;20497;-76
2022/10/07 16:14:58;;;;;;;9.07;2.33;;;;;;;16.14;52.77;100247.59;10390383;28;20072;-74
2022/10/07 16:20:02;;;;;;;11.73;2.50;;;;;;;15.84;52.77;100234.13;10389623;28;20053;-75
2022/10/07 16:25:09;;;;;;;9.40;4.38;;;;;;;15.50;53.78;100244.72;10389745;28;20045;-75
2022/10/07 16:35:31;;;;;;;13.10;2.95;;;;;;;14.90;55.19;100240.34;10389985;28;20060;-76
2022/10/07 16:40:33;;;;;;;9.57;2.45;;;;;;;14.68;55.86;100248.13;10387817;28;20049;-74
2022/10/07 16:45:38;;;;;;;9.95;2.55;;;;;;;14.42;56.86;100244.69;10388738;28;20054;-74
2022/10/07 16:50:45;;;;;;;7.18;2.70;;;;;;;14.16;57.77;100243.03;10388378;28;20059;-75
2022/10/07 16:55:47;;;;;;;9.35;2.42;;;;;;;13.92;57.88;100242.13;10388027;28;20493;-75
2022/10/07 17:00:49;;;;;;;10.35;2.13;;;;;;;13.80;58.23;100235.03;10387029;28;20084;-75
2022/10/07 17:05:55;;;;;;;7.30;2.45;;;;;;;13.63;59.05;100232.72;10388940;28;20068;-75
2022/10/07 17:10:58;;;;;;;8.00;2.70;;;;;;;13.42;59.72;100234.13;10387178;28;20116;-73
2022/10/07 17:16:00;;;;;;;10.13;3.30;;;;;;;13.29;60.09;100233.28;10386107;28;20073;-74
2022/10/07 17:21:01;;;;;;;13.57;3.30;;;;;;;13.12;60.52;100237.00;10387295;28;20064;-75
2022/10/07 17:26:07;;;;;;;9.40;2.95;;;;;;;12.98;60.70;100242.31;10386908;28;20390;-75
2022/10/07 17:31:12;;;;;;;10.30;3.88;;;;;;;12.89;61.16;100246.34;10386273;28;20132;-76
2022/10/07 17:36:13;;;;;;;14.98;5.85;;;;;;;12.78;61.17;100238.31;10385739;28;20133;-76
2022/10/07 17:41:17;;;;;;;12.32;5.97;;;;;;;12.74;61.64;100242.06;10387169;28;20094;-74
2022/10/07 17:46:19;;;;;;;17.08;5.15;;;;;;;12.67;61.87;100238.16;10386470;28;20063;-74
2022/10/07 17:51:23;;;;;;;13.52;4.43;;;;;;;12.57;62.22;100239.69;10385955;28;20053;-75
2022/10/07 17:56:26;;;;;;;12.90;3.47;;;;;;;12.47;62.22;100249.09;10386412;28;20061;-74
2022/10/07 18:01:31;;;;;;;10.25;3.25;;;;;;;12.37;62.43;100250.59;10383738;28;20418;-65
2022/10/07 18:06:36;;;;;;;16.92;3.47;;;;;;;12.30;62.58;100251.91;10370255;28;20053;-65
2022/10/07 18:16:58;;;;;;;11.65;2.92;;;;;;;12.10;63.02;100241.75;10385270;28;20410;-65
2022/10/07 18:22:01;;;;;;;13.27;3.03;;;;;;;12.02;63.29;100244.00;10383652;28;20072;-65
2022/10/07 18:27:03;;;;;;;6.28;2.50;;;;;;;11.92;63.21;100238.47;10378491;28;20064;-65
2022/10/07 18:32:06;;;;;;;13.73;2.95;;;;;;;11.82;63.48;100242.59;10383006;28;20120;-65
2022/10/07 18:37:08;;;;;;;13.13;2.90;;;;;;;11.74;63.84;100236.13;10380825;28;20144;-65
2022/10/07 18:42:09;;;;;;;8.05;2.72;;;;;;;11.66;63.68;100246.22;10384620;28;20509;-65
2022/10/07 18:47:11;;;;;;;12.00;2.75;;;;;;;11.62;64.16;100232.44;10385835;28;20450;-65
2022/10/07 18:52:13;;;;;;;6.90;2.63;;;;;;;11.59;64.21;100226.53;10381924;28;20148;-65
2022/10/07 18:57:14;;;;;;;12.65;2.90;;;;;;;11.59;64.29;100216.06;10383204;28;20545;-65
2022/10/07 19:02:16;;;;;;;13.77;3.30;;;;;;;11.58;64.19;100214.38;10379487;28;20065;-65
2022/10/07 19:07:18;;;;;;;15.40;4.10;;;;;;;11.57;64.22;100224.00;10384821;28;20053;-66
2022/10/07 19:17:40;;;;;;;11.90;3.00;;;;;;;11.50;64.41;100225.28;10387593;28;20052;-65
2022/10/07 19:22:41;;;;;;;10.65;3.22;;;;;;;11.44;64.71;100223.03;10392392;28;20056;-66
2022/10/07 19:27:43;;;;;;;12.13;3.30;;;;;;;11.41;64.81;100231.09;10391228;28;20042;-65
2022/10/07 19:32:45;;;;;;;12.30;2.90;;;;;;;11.43;64.99;100229.22;10390893;28;20061;-65
2022/10/07 19:37:47;;;;;;;14.60;3.17;;;;;;;11.48;64.84;100223.72;10383726;28;20056;-65
2022/10/07 19:42:49;;;;;;;10.38;2.97;;;;;;;11.52;64.66;100220.00;10390211;28;20053;-66
2022/10/07 19:47:50;;;;;;;7.88;2.83;;;;;;;11.57;64.64;100212.69;10390315;28;20045;-65
2022/10/07 19:52:55;;;;;;;15.93;3.30;;;;;;;11.54;64.42;100216.31;10390613;28;20049;-65
2022/10/07 19:57:59;;;;;;;13.52;3.10;;;;;;;11.35;64.66;100220.97;10390820;28;20055;-65
2022/10/07 20:03:01;;;;;;;10.60;3.30;;;;;;;11.30;64.94;100226.47;10390375;28;20069;-66
2022/10/07 20:08:03;;;;;;;11.63;3.25;;;;;;;11.35;64.69;100222.75;10389712;28;20057;-65
2022/10/07 20:13:10;;;;;;;8.68;3.30;;;;;;;11.37;65.16;100220.88;10390247;28;20053;-65
2022/10/07 20:18:12;;;;;;;11.80;3.60;;;;;;;11.34;64.81;100221.88;10388245;28;21158;-65
2022/10/07 20:23:13;;;;;;;14.00;4.38;;;;;;;11.22;64.95;100219.97;10389143;28;20045;-65
2022/10/07 20:28:15;;;;;;;13.27;3.80;;;;;;;11.17;64.95;100222.03;10388054;28;20512;-65
2022/10/07 20:33:17;;;;;;;14.88;3.67;;;;;;;11.18;64.94;100215.84;10389561;28;20402;-65
2022/10/07 20:38:18;;;;;;;11.65;3.63;;;;;;;11.13;65.44;100216.13;10388058;28;20053;-66
2022/10/07 20:43:20;;;;;;;12.07;3.47;;;;;;;10.97;65.46;100217.91;10389426;28;20049;-65
2022/10/07 20:48:22;;;;;;;11.45;3.45;;;;;;;10.90;65.35;100218.34;10389452;28;20053;-65
2022/10/07 20:53:24;;;;;;;13.40;3.13;;;;;;;10.78;65.48;100222.50;10386883;28;20509;-65
2022/10/07 20:58:25;;;;;;;7.43;3.10;;;;;;;10.75;65.26;100220.03;10387041;28;20065;-65
2022/10/07 21:03:29;;;;;;;12.05;3.90;;;;;;;10.71;65.56;100207.19;10387502;28;20064;-65
2022/10/07 21:08:30;;;;;;;12.63;4.05;;;;;;;10.61;65.76;100211.25;10386894;28;20096;-65
2022/10/07 21:13:32;;;;;;;9.63;3.40;;;;;;;10.49;65.94;100207.56;10387423;28;20053;-65
2022/10/07 21:18:34;;;;;;;10.52;3.47;;;;;;;10.31;65.79;100206.81;10385578;28;20520;-65
2022/10/07 21:23:36;;;;;;;8.20;3.40;;;;;;;10.32;66.11;100213.72;10387351;28;20053;-65
2022/10/07 21:28:39;;;;;;;12.02;3.50;;;;;;;10.33;66.14;100214.56;10385215;28;20123;-65
2022/10/07 21:33:41;;;;;;;12.07;3.40;;;;;;;10.32;66.36;100207.63;10385313;28;20138;-65
2022/10/07 21:38:45;;;;;;;12.80;3.97;;;;;;;10.24;66.15;100204.59;10385872;28;20045;-65
2022/10/07 21:43:50;;;;;;;12.38;4.25;;;;;;;10.20;66.32;100205.69;10385875;28;20417;-64
2022/10/07 21:48:53;;;;;;;14.93;4.30;;;;;;;10.20;66.42;100192.59;10383233;28;20053;-65
2022/10/07 21:53:58;;;;;;;12.50;4.10;;;;;;;10.17;66.56;100200.63;10384674;28;20175;-65
2022/10/07 21:59:03;;;;;;;14.50;4.47;;;;;;;10.14;66.85;100209.47;10385933;28;20233;-65
2022/10/07 22:04:06;;;;;;;10.77;4.15;;;;;;;10.15;66.54;100192.88;10385186;28;20057;-65
2022/10/07 22:09:08;;;;;;;11.80;3.42;;;;;;;10.15;66.76;100195.50;10379412;28;20058;-65
2022/10/07 22:14:10;;;;;;;14.85;3.78;;;;;;;10.22;66.54;100189.00;10383429;28;20060;-65
2022/10/07 22:19:13;;;;;;;12.32;3.55;;;;;;;10.24;66.59;100183.66;10361291;28;20057;-65
2022/10/07 22:24:15;;;;;;;10.75;3.47;;;;;;;10.24;66.35;100191.50;10380821;28;20429;-65
2022/10/07 22:29:18;;;;;;;8.48;3.47;;;;;;;10.19;66.17;100190.94;10383054;28;20049;-65
2022/10/07 22:39:42;;;;;;;16.55;4.05;;;;;;;10.10;66.20;100176.59;10382702;28;20064;-64
2022/10/07 22:44:44;;;;;;;11.13;3.92;;;;;;;10.01;66.39;100178.88;10384282;28;20128;-65
2022/10/07 22:49:47;;;;;;;12.45;4.13;;;;;;;10.02;66.30;100168.31;10381236;28;20054;-65
2022/10/07 22:54:48;;;;;;;10.85;4.18;;;;;;;10.06;66.30;100169.84;10384097;28;20057;-65
2022/10/07 22:59:50;;;;;;;15.75;3.80;;;;;;;10.15;66.26;100173.72;10391092;28;20053;-65
2022/10/07 23:04:51;;;;;;;10.48;4.15;;;;;;;10.31;66.13;100180.66;10391616;28;20049;-65
2022/10/07 23:09:53;;;;;;;15.88;4.10;;;;;;;10.38;66.12;100182.00;10389721;28;20049;-65
2022/10/07 23:14:55;;;;;;;11.82;4.45;;;;;;;10.28;66.63;100169.50;10373116;28;20149;-65
2022/10/07 23:19:58;;;;;;;18.10;4.72;;;;;;;10.16;66.95;100176.25;10385927;28;20049;-65
2022/10/07 23:25:03;;;;;;;14.57;4.20;;;;;;;10.23;66.81;100166.31;10384331;28;20052;-64
2022/10/07 23:30:05;;;;;;;9.45;3.55;;;;;;;10.38;66.72;100174.16;10385966;28;20476;-65
2022/10/07 23:35:07;;;;;;;11.30;3.72;;;;;;;10.46;66.42;100166.72;10389737;28;20076;-65
2022/10/07 23:40:09;;;;;;;11.43;4.38;;;;;;;10.44;66.40;100173.81;10382951;28;20064;-64
2022/10/07 23:45:12;;;;;;;13.73;3.90;;;;;;;10.44;66.32;100173.81;10390118;28;20053;-64
2022/10/07 23:50:13;;;;;;;15.93;4.22;;;;;;;10.39;66.22;100152.31;10388319;28;20441;-65